• Join FlightAware (Why Join?)
  • Login
  • US Flag 
03:59PM EDT


 

Airport Tracker/Info


-or-


 

Live Flight TrackerFlight Track Log ✈ RPA3253 ✈ 13-Jun-2013 ✈ KALB - KCLT

Flight Track Log - Related Links

Times and Time Zones

All times are in EDT time to prevent confusion due to time zone crossing. See the RPA3253 flight status page for this flight to view local times or setup timezone preferences in your user account.

Time Position Orientation Groundspeed Altitude Reporting Facility
EDT Latitude Longitude Course Direction KTS MPH feet Rate Location/Type
08:47PM 42.7694 -73.8089 320° Northwest 135 155 1,400  Level Boston Center
08:48PM 42.8147 -73.8608 320° Northwest 246 283 3,400 2,160 Climbing Boston Center
08:48PM 42.8289 -73.8811 314° West 249 287 4,400 3,300 Climbing Boston Center
08:49PM 42.8636 -73.9469 306° West 251 289 7,700 3,120 Climbing Boston Center
08:50PM 42.8722 -74.0633 276° West 257 296 10,700 2,460 Climbing Boston Center
08:51PM 42.8336 -74.1444 237° Southwest 294 338 12,700 2,340 Climbing Boston Center
08:52PM 42.7383 -74.1136 167° South 247 284 15,400 2,400 Climbing Boston Center
08:53PM 42.6431 -74.0658 160° South 308 354 17,500 2,100 Climbing Boston Center
08:54PM 42.5458 -74.0125 158° South 365 420 19,600 2,040 Climbing Boston Center
08:55PM 42.4403 -73.9564 159° South 380 437 21,600 1,860 Climbing Boston Center
08:56PM 42.3347 -73.9006 159° South 399 459 23,400 1,740 Climbing Boston Center
08:57PM 42.2292 -73.8447 159° South 410 472 25,100 1,500 Climbing Boston Center
08:58PM 42.1172 -73.7892 160° South 415 478 26,400 1,260 Climbing Boston Center
08:59PM 42.0075 -73.7281 158° South 425 489 27,700 1,320 Climbing Boston Center
09:00PM 41.8956 -73.6700 159° South 425 489 29,100 1,320 Climbing Boston Center
09:01PM 41.7858 -73.6178 160° South 425 489 30,400 1,380 Climbing Boston Center
09:02PM 41.6733 -73.5989 173° South 416 479 31,900 1,020 Climbing Boston Center
09:04PM 41.4594 -73.7442 207° Southwest 365 420 34,000 600 Climbing New York Center
09:05PM 41.3800 -73.8375 221° Southwest 376 433 34,000  Level New York Center
09:06PM 41.2983 -73.9331 221° Southwest 386 444 34,000  Level New York Center
09:07PM 41.2167 -74.0258 221° Southwest 392 451 34,000  Level New York Center
09:08PM 41.1350 -74.1211 221° Southwest 397 457 34,000  Level New York Center
09:09PM 41.0489 -74.2131 219° Southwest 397 457 34,000  Level New York Center
09:10PM 40.9669 -74.3050 220° Southwest 397 457 34,000  Level New York Center
09:11PM 40.8828 -74.4022 221° Southwest 402 463 34,000  Level New York Center
09:12PM 40.8008 -74.4964 221° Southwest 397 457 34,000  Level New York Center
09:13PM 40.7164 -74.5906 220° Southwest 397 457 34,000  Level New York Center
09:14PM 40.6342 -74.6869 222° Southwest 397 457 34,000  Level New York Center
09:15PM 40.5539 -74.7808 222° Southwest 397 457 34,000  Level New York Center
09:16PM 40.4814 -74.8883 228° Southwest 397 457 34,000  Level New York Center
09:17PM 40.4069 -74.9931 227° Southwest 397 457 34,000  Level New York Center
09:18PM 40.3344 -75.0947 227° Southwest 392 451 34,000  Level New York Center
09:19PM 40.2661 -75.1939 228° Southwest 386 444 34,000  Level New York Center
09:20PM 40.1956 -75.2953 228° Southwest 386 444 34,000  Level New York Center
09:21PM 40.1228 -75.3964 227° Southwest 386 444 34,000 360 Level New York Center
09:22PM 40.0522 -75.4947 227° Southwest 386 444 34,800 840 Climbing New York Center
09:23PM 39.9817 -75.5903 226° Southwest 386 444 35,800 540 Climbing New York Center
09:24PM 39.9108 -75.6883 227° Southwest 386 444 36,000 60 Climbing New York Center
09:25PM 39.8461 -75.7919 231° Southwest 386 444 36,000  Level New York Center
09:26PM 39.7769 -75.8950 229° Southwest 380 437 36,000  Level New York Center
09:27PM 39.7161 -75.9986 233° Southwest 375 432 36,000  Level New York Center
09:30PM 39.5703 -76.2294 231° Southwest 377 434 36,000  Level Washington Center
09:31PM 39.5031 -76.3367 231° Southwest 382 440 36,000  Level Washington Center
09:32PM 39.4336 -76.4381 228° Southwest 377 434 36,000  Level Washington Center
09:33PM 39.3597 -76.5472 229° Southwest 372 428 36,000  Level Washington Center
09:34PM 39.2944 -76.6483 230° Southwest 372 428 36,000  Level Washington Center
09:35PM 39.2289 -76.7544 231° Southwest 372 428 36,000  Level Washington Center
09:36PM 39.1611 -76.8578 230° Southwest 372 428 36,000  Level Washington Center
09:37PM 39.0931 -76.9608 230° Southwest 372 428 36,000  Level Washington Center
09:38PM 39.0233 -77.0583 227° Southwest 372 428 36,000  Level Washington Center
09:39PM 38.9428 -77.1503 222° Southwest 377 434 36,000  Level Washington Center
09:40PM 38.8647 -77.2367 221° Southwest 377 434 36,000  Level Washington Center
09:41PM 38.7822 -77.3225 219° Southwest 377 434 36,000  Level Washington Center
09:42PM 38.7100 -77.4008 220° Southwest 382 440 36,000  Level Washington Center
09:43PM 38.6294 -77.4892 221° Southwest 382 440 36,000  Level Washington Center
09:44PM 38.5508 -77.5775 221° Southwest 382 440 36,000  Level Washington Center
09:45PM 38.4703 -77.6656 221° Southwest 382 440 36,000  Level Washington Center
09:46PM 38.3894 -77.7533 220° Southwest 382 440 36,000  Level Washington Center
09:47PM 38.3108 -77.8383 220° Southwest 382 440 36,000  Level Washington Center
09:48PM 38.2300 -77.9231 219° Southwest 382 440 36,000  Level Washington Center
09:49PM 38.1511 -78.0106 221° Southwest 382 440 36,000  Level Washington Center
09:50PM 38.0722 -78.0950 220° Southwest 382 440 36,000  Level Washington Center
09:51PM 37.9928 -78.1925 224° Southwest 374 430 36,000 -60 Level Washington Center
09:52PM 37.9239 -78.2928 229° Southwest 369 425 35,900 -780 Descending Washington Center
09:53PM 37.8614 -78.3800 228° Southwest 375 432 34,500 -960 Descending Washington Center
09:54PM 37.7922 -78.4797 229° Southwest 380 437 34,000 -300 Descending Washington Center
09:55PM 37.7231 -78.5769 228° Southwest 380 437 34,000  Level Washington Center
09:56PM 37.6397 -78.6628 219° Southwest 380 437 34,000 -180 Level Washington Center
09:57PM 37.5497 -78.7536 219° Southwest 385 443 33,700 -900 Descending Washington Center
09:58PM 37.4617 -78.8467 220° Southwest 397 457 32,200 -900 Descending Washington Center
09:59PM 37.3717 -78.9344 218° Southwest 410 472 32,000 -120 Descending Washington Center
10:00PM 37.2836 -79.0269 220° Southwest 415 478 32,000  Level Washington Center
10:01PM 37.1933 -79.1194 219° Southwest 415 478 32,000 -300 Level Washington Center
10:02PM 37.1136 -79.2017 219° Southwest 415 478 31,500 -840 Descending Washington Center
10:03PM 37.0253 -79.2914 219° Southwest 415 478 30,400 -1,140 Descending Washington Center
10:04PM 36.9328 -79.3831 218° Southwest 415 478 29,300 -1,140 Descending Washington Center
10:05PM 36.8419 -79.4797 220° Southwest 421 484 28,200 -660 Descending Washington Center
10:06PM 36.7383 -79.5833 219° Southwest 434 499 28,000 -120 Descending Washington Center
10:07PM 36.6433 -79.6794 219° Southwest 440 506 28,000 -660 Level Washington Center
10:08PM 36.4969 -79.8242 218° Southwest 430 495 26,300 -1,500 Descending Atlanta Center
10:09PM 36.4042 -79.9167 219° Southwest 430 495 24,200 -2,100 Descending Atlanta Center
10:10PM 36.3253 -79.9928 218° Southwest 424 488 22,100 -1,140 Descending Atlanta Center
10:11PM 36.2381 -80.0719 216° Southwest 417 480 22,000 -780 Descending Atlanta Center
10:12PM 36.1447 -80.1511 214° Southwest 412 474 20,600 -1,860 Descending Atlanta Center
10:13PM 36.0453 -80.2356 214° Southwest 407 468 18,300 -2,280 Descending Atlanta Center
10:14PM 36.0067 -80.2731 218° Southwest 391 450 17,300 -2,220 Descending Atlanta Center
10:14PM 35.9597 -80.3061 210° Southwest 397 457 16,100 -1,920 Descending Atlanta Center
10:15PM 35.8767 -80.3817 216° Southwest 342 394 14,400 -1,620 Descending Atlanta Center
10:16PM 35.8136 -80.4383 216° Southwest 314 361 13,100 -1,080 Descending Atlanta Center
10:17PM 35.7300 -80.5033 212° Southwest 332 382 12,300 -840 Descending Atlanta Center
10:18PM 35.6689 -80.5572 216° Southwest 325 374 11,500 -720 Descending Atlanta Center
10:19PM 35.5894 -80.6244 215° Southwest 316 364 11,000 -240 Descending Atlanta Center
10:20PM 35.5119 -80.6889 214° Southwest 315 362 11,000  Level Atlanta Center
10:21PM 35.4383 -80.7506 214° Southwest 320 368 11,000  Level Atlanta Center
10:22PM 35.3628 -80.8094 212° Southwest 325 374 11,000 -540 Level Atlanta Center
10:23PM 35.2886 -80.8406 199° South 299 344 10,000 -1,200 Descending Atlanta Center
10:24PM 35.2069 -80.8333 176° South 275 316 8,500 -1,620 Descending Atlanta Center
10:25PM 35.1233 -80.8264 176° South 272 313 6,600 -1,740 Descending Atlanta Center
10:26PM 35.0525 -80.8292 182° South 261 300 5,000 -1,200 Descending Atlanta Center
10:27PM 35.0311 -80.8908 247° West 169 194 4,300 -780 Descending Atlanta Center
10:28PM 35.0611 -80.9253 317° Northwest 139 160 3,500 -780 Descending Atlanta Center
10:29PM 35.1008 -80.9289 356° North 152 175 2,800 -840 Descending Atlanta Center
10:30PM 35.1431 -80.9425 345° North 143 165 1,900 -780 Descending Atlanta Center
10:31PM 35.1683 -80.9517 343° North 117 135 1,300 -660 Descending Atlanta Center
10:33PM 35.2000 -80.9333 North  Level FlightAware Approximate